sensor_id;sensor_type;location;lat;lon;timestamp;P1;durP1;ratioP1;P2;durP2;ratioP2
4961;SDS011;2496;52.468;13.342;2023-09-30T00:00:10;11.23;;;2.97;;
4961;SDS011;2496;52.468;13.342;2023-09-30T00:02:38;9.23;;;3.50;;
4961;SDS011;2496;52.468;13.342;2023-09-30T00:05:05;6.00;;;2.10;;
4961;SDS011;2496;52.468;13.342;2023-09-30T00:07:35;13.57;;;2.70;;
4961;SDS011;2496;52.468;13.342;2023-09-30T00:10:02;6.43;;;2.60;;
4961;SDS011;2496;52.468;13.342;2023-09-30T00:12:30;3.90;;;2.30;;
4961;SDS011;2496;52.468;13.342;2023-09-30T00:14:57;8.83;;;2.77;;
4961;SDS011;2496;52.468;13.342;2023-09-30T00:17:25;10.80;;;3.53;;
4961;SDS011;2496;52.468;13.342;2023-09-30T00:19:52;9.70;;;2.67;;
4961;SDS011;2496;52.468;13.342;2023-09-30T00:22:19;7.10;;;3.10;;
4961;SDS011;2496;52.468;13.342;2023-09-30T00:24:46;8.07;;;2.37;;
4961;SDS011;2496;52.468;13.342;2023-09-30T00:27:13;10.20;;;2.83;;
4961;SDS011;2496;52.468;13.342;2023-09-30T00:29:41;4.80;;;1.90;;
4961;SDS011;2496;52.468;13.342;2023-09-30T00:32:08;13.33;;;3.03;;
4961;SDS011;2496;52.468;13.342;2023-09-30T00:34:36;8.17;;;2.50;;
4961;SDS011;2496;52.468;13.342;2023-09-30T00:37:03;6.63;;;3.50;;
4961;SDS011;2496;52.468;13.342;2023-09-30T00:39:30;8.73;;;3.10;;
4961;SDS011;2496;52.468;13.342;2023-09-30T00:41:59;11.47;;;3.13;;
4961;SDS011;2496;52.468;13.342;2023-09-30T00:44:28;5.83;;;2.83;;
4961;SDS011;2496;52.468;13.342;2023-09-30T00:46:56;8.60;;;2.40;;
4961;SDS011;2496;52.468;13.342;2023-09-30T00:49:23;11.50;;;2.97;;
4961;SDS011;2496;52.468;13.342;2023-09-30T00:51:52;7.67;;;3.00;;
4961;SDS011;2496;52.468;13.342;2023-09-30T00:54:20;11.50;;;3.10;;
4961;SDS011;2496;52.468;13.342;2023-09-30T00:56:49;11.20;;;2.90;;
4961;SDS011;2496;52.468;13.342;2023-09-30T00:59:17;8.83;;;2.60;;
4961;SDS011;2496;52.468;13.342;2023-09-30T01:01:46;11.67;;;3.53;;
4961;SDS011;2496;52.468;13.342;2023-09-30T01:04:13;9.17;;;3.77;;
4961;SDS011;2496;52.468;13.342;2023-09-30T01:06:42;6.77;;;2.73;;
4961;SDS011;2496;52.468;13.342;2023-09-30T01:09:11;9.30;;;3.40;;
4961;SDS011;2496;52.468;13.342;2023-09-30T01:11:39;10.07;;;3.20;;
4961;SDS011;2496;52.468;13.342;2023-09-30T01:16:52;7.40;;;3.80;;
4961;SDS011;2496;52.468;13.342;2023-09-30T01:19:19;9.77;;;3.30;;
4961;SDS011;2496;52.468;13.342;2023-09-30T01:21:47;14.47;;;3.50;;
4961;SDS011;2496;52.468;13.342;2023-09-30T01:24:14;7.80;;;2.53;;
4961;SDS011;2496;52.468;13.342;2023-09-30T01:26:41;15.37;;;3.40;;
4961;SDS011;2496;52.468;13.342;2023-09-30T01:29:09;13.20;;;4.20;;
4961;SDS011;2496;52.468;13.342;2023-09-30T01:31:37;8.00;;;2.93;;
4961;SDS011;2496;52.468;13.342;2023-09-30T01:34:04;9.90;;;3.40;;
4961;SDS011;2496;52.468;13.342;2023-09-30T01:36:32;14.77;;;3.27;;
4961;SDS011;2496;52.468;13.342;2023-09-30T01:39:01;13.97;;;3.83;;
4961;SDS011;2496;52.468;13.342;2023-09-30T01:41:28;11.43;;;3.70;;
4961;SDS011;2496;52.468;13.342;2023-09-30T01:43:56;9.40;;;3.67;;
4961;SDS011;2496;52.468;13.342;2023-09-30T01:46:23;22.10;;;4.40;;
4961;SDS011;2496;52.468;13.342;2023-09-30T01:48:50;15.50;;;3.43;;
4961;SDS011;2496;52.468;13.342;2023-09-30T01:51:18;7.17;;;3.07;;
4961;SDS011;2496;52.468;13.342;2023-09-30T01:53:46;13.27;;;3.43;;
4961;SDS011;2496;52.468;13.342;2023-09-30T01:56:15;9.00;;;3.53;;
4961;SDS011;2496;52.468;13.342;2023-09-30T01:58:42;10.73;;;3.40;;
4961;SDS011;2496;52.468;13.342;2023-09-30T02:01:10;12.93;;;3.30;;
4961;SDS011;2496;52.468;13.342;2023-09-30T02:03:37;11.70;;;3.00;;
4961;SDS011;2496;52.468;13.342;2023-09-30T02:06:04;9.67;;;3.53;;
4961;SDS011;2496;52.468;13.342;2023-09-30T02:08:32;11.83;;;4.37;;
4961;SDS011;2496;52.468;13.342;2023-09-30T02:11:01;15.73;;;3.50;;
4961;SDS011;2496;52.468;13.342;2023-09-30T02:13:32;15.23;;;3.47;;
4961;SDS011;2496;52.468;13.342;2023-09-30T02:16:00;11.80;;;3.50;;
4961;SDS011;2496;52.468;13.342;2023-09-30T02:18:27;10.90;;;3.40;;
4961;SDS011;2496;52.468;13.342;2023-09-30T02:20:57;9.07;;;3.37;;
4961;SDS011;2496;52.468;13.342;2023-09-30T02:23:24;15.27;;;3.80;;
4961;SDS011;2496;52.468;13.342;2023-09-30T02:25:52;16.13;;;4.70;;
4961;SDS011;2496;52.468;13.342;2023-09-30T02:28:19;7.90;;;3.50;;
4961;SDS011;2496;52.468;13.342;2023-09-30T02:30:48;14.20;;;4.17;;
4961;SDS011;2496;52.468;13.342;2023-09-30T02:33:16;9.83;;;3.43;;
4961;SDS011;2496;52.468;13.342;2023-09-30T02:35:44;8.93;;;3.50;;
4961;SDS011;2496;52.468;13.342;2023-09-30T02:38:12;14.50;;;4.27;;
4961;SDS011;2496;52.468;13.342;2023-09-30T02:40:41;17.70;;;3.50;;
4961;SDS011;2496;52.468;13.342;2023-09-30T02:43:11;11.23;;;3.97;;
4961;SDS011;2496;52.468;13.342;2023-09-30T02:45:38;11.50;;;3.13;;
4961;SDS011;2496;52.468;13.342;2023-09-30T02:48:07;14.27;;;3.90;;
4961;SDS011;2496;52.468;13.342;2023-09-30T02:50:34;16.90;;;4.87;;
4961;SDS011;2496;52.468;13.342;2023-09-30T02:53:01;12.33;;;4.00;;
4961;SDS011;2496;52.468;13.342;2023-09-30T02:55:29;10.13;;;3.77;;
4961;SDS011;2496;52.468;13.342;2023-09-30T02:57:56;16.47;;;3.40;;
4961;SDS011;2496;52.468;13.342;2023-09-30T03:00:24;16.93;;;3.53;;
4961;SDS011;2496;52.468;13.342;2023-09-30T03:02:51;13.27;;;3.30;;
4961;SDS011;2496;52.468;13.342;2023-09-30T03:05:21;14.93;;;3.80;;
4961;SDS011;2496;52.468;13.342;2023-09-30T03:07:49;8.33;;;3.57;;
4961;SDS011;2496;52.468;13.342;2023-09-30T03:10:16;12.83;;;3.93;;
4961;SDS011;2496;52.468;13.342;2023-09-30T03:12:45;14.77;;;4.20;;
4961;SDS011;2496;52.468;13.342;2023-09-30T03:15:13;13.97;;;3.70;;
4961;SDS011;2496;52.468;13.342;2023-09-30T03:17:41;11.57;;;4.00;;
4961;SDS011;2496;52.468;13.342;2023-09-30T03:20:09;10.13;;;3.60;;
4961;SDS011;2496;52.468;13.342;2023-09-30T03:22:39;9.93;;;3.47;;
4961;SDS011;2496;52.468;13.342;2023-09-30T03:25:07;9.77;;;3.37;;
4961;SDS011;2496;52.468;13.342;2023-09-30T03:27:36;17.60;;;4.00;;
4961;SDS011;2496;52.468;13.342;2023-09-30T03:30:04;20.23;;;5.13;;
4961;SDS011;2496;52.468;13.342;2023-09-30T03:32:32;8.33;;;3.37;;
4961;SDS011;2496;52.468;13.342;2023-09-30T03:35:03;12.83;;;4.30;;
4961;SDS011;2496;52.468;13.342;2023-09-30T03:37:31;12.63;;;4.07;;
4961;SDS011;2496;52.468;13.342;2023-09-30T03:39:59;12.50;;;4.10;;
4961;SDS011;2496;52.468;13.342;2023-09-30T03:42:36;13.97;;;3.90;;
4961;SDS011;2496;52.468;13.342;2023-09-30T03:45:05;20.63;;;4.40;;
4961;SDS011;2496;52.468;13.342;2023-09-30T03:47:34;11.90;;;4.03;;
4961;SDS011;2496;52.468;13.342;2023-09-30T03:50:01;10.90;;;4.00;;
4961;SDS011;2496;52.468;13.342;2023-09-30T03:52:29;12.17;;;4.00;;
4961;SDS011;2496;52.468;13.342;2023-09-30T03:54:59;21.07;;;4.40;;
4961;SDS011;2496;52.468;13.342;2023-09-30T03:57:29;17.63;;;4.40;;
4961;SDS011;2496;52.468;13.342;2023-09-30T03:59:57;18.93;;;4.00;;
4961;SDS011;2496;52.468;13.342;2023-09-30T04:02:24;18.07;;;4.43;;
4961;SDS011;2496;52.468;13.342;2023-09-30T04:04:51;13.10;;;3.60;;
4961;SDS011;2496;52.468;13.342;2023-09-30T04:07:20;18.23;;;4.33;;
4961;SDS011;2496;52.468;13.342;2023-09-30T04:09:52;11.83;;;3.50;;
4961;SDS011;2496;52.468;13.342;2023-09-30T04:12:21;13.50;;;3.80;;
4961;SDS011;2496;52.468;13.342;2023-09-30T04:14:49;9.80;;;3.57;;
4961;SDS011;2496;52.468;13.342;2023-09-30T04:17:15;15.20;;;4.77;;
4961;SDS011;2496;52.468;13.342;2023-09-30T04:19:43;12.53;;;3.70;;
4961;SDS011;2496;52.468;13.342;2023-09-30T04:22:11;15.97;;;4.60;;
4961;SDS011;2496;52.468;13.342;2023-09-30T04:24:41;10.63;;;4.20;;
4961;SDS011;2496;52.468;13.342;2023-09-30T04:27:08;10.50;;;3.90;;
4961;SDS011;2496;52.468;13.342;2023-09-30T04:29:37;20.83;;;4.43;;
4961;SDS011;2496;52.468;13.342;2023-09-30T04:32:04;19.23;;;4.27;;
4961;SDS011;2496;52.468;13.342;2023-09-30T04:34:31;14.37;;;3.83;;
4961;SDS011;2496;52.468;13.342;2023-09-30T04:36:58;11.13;;;3.47;;
4961;SDS011;2496;52.468;13.342;2023-09-30T04:39:25;15.40;;;4.23;;
4961;SDS011;2496;52.468;13.342;2023-09-30T04:41:52;9.87;;;3.73;;
4961;SDS011;2496;52.468;13.342;2023-09-30T04:44:20;21.23;;;4.23;;
4961;SDS011;2496;52.468;13.342;2023-09-30T04:46:49;10.93;;;4.40;;
4961;SDS011;2496;52.468;13.342;2023-09-30T04:49:16;19.83;;;4.20;;
4961;SDS011;2496;52.468;13.342;2023-09-30T04:51:44;11.87;;;4.53;;
4961;SDS011;2496;52.468;13.342;2023-09-30T04:54:11;17.33;;;5.13;;
4961;SDS011;2496;52.468;13.342;2023-09-30T04:56:38;14.00;;;5.13;;
4961;SDS011;2496;52.468;13.342;2023-09-30T04:59:06;16.97;;;4.10;;
4961;SDS011;2496;52.468;13.342;2023-09-30T05:01:33;9.03;;;3.40;;
4961;SDS011;2496;52.468;13.342;2023-09-30T05:04:02;12.57;;;4.30;;
4961;SDS011;2496;52.468;13.342;2023-09-30T05:06:30;18.20;;;4.10;;
4961;SDS011;2496;52.468;13.342;2023-09-30T05:08:57;7.87;;;3.40;;
4961;SDS011;2496;52.468;13.342;2023-09-30T05:11:25;20.80;;;4.03;;
4961;SDS011;2496;52.468;13.342;2023-09-30T05:13:52;12.73;;;4.40;;
4961;SDS011;2496;52.468;13.342;2023-09-30T05:16:19;16.03;;;4.90;;
4961;SDS011;2496;52.468;13.342;2023-09-30T05:18:46;12.47;;;3.93;;
4961;SDS011;2496;52.468;13.342;2023-09-30T05:21:15;9.03;;;3.70;;
4961;SDS011;2496;52.468;13.342;2023-09-30T05:23:42;16.90;;;4.70;;
4961;SDS011;2496;52.468;13.342;2023-09-30T05:26:09;16.90;;;4.33;;
4961;SDS011;2496;52.468;13.342;2023-09-30T05:28:36;25.17;;;4.73;;
4961;SDS011;2496;52.468;13.342;2023-09-30T05:31:04;12.63;;;4.33;;
4961;SDS011;2496;52.468;13.342;2023-09-30T05:33:32;11.87;;;4.13;;
4961;SDS011;2496;52.468;13.342;2023-09-30T05:35:59;10.67;;;4.70;;
4961;SDS011;2496;52.468;13.342;2023-09-30T05:38:29;14.90;;;5.17;;
4961;SDS011;2496;52.468;13.342;2023-09-30T05:40:56;13.93;;;3.77;;
4961;SDS011;2496;52.468;13.342;2023-09-30T05:43:24;18.20;;;4.57;;
4961;SDS011;2496;52.468;13.342;2023-09-30T05:45:52;11.20;;;4.53;;
4961;SDS011;2496;52.468;13.342;2023-09-30T05:48:19;15.70;;;4.30;;
4961;SDS011;2496;52.468;13.342;2023-09-30T05:50:46;13.53;;;4.80;;
4961;SDS011;2496;52.468;13.342;2023-09-30T05:53:13;20.00;;;4.53;;
4961;SDS011;2496;52.468;13.342;2023-09-30T05:55:42;16.97;;;4.97;;
4961;SDS011;2496;52.468;13.342;2023-09-30T05:58:13;10.70;;;5.50;;
4961;SDS011;2496;52.468;13.342;2023-09-30T06:00:41;10.00;;;3.80;;
4961;SDS011;2496;52.468;13.342;2023-09-30T06:03:08;16.10;;;3.93;;
4961;SDS011;2496;52.468;13.342;2023-09-30T06:05:38;17.50;;;4.87;;
4961;SDS011;2496;52.468;13.342;2023-09-30T06:08:07;8.83;;;3.90;;
4961;SDS011;2496;52.468;13.342;2023-09-30T06:10:35;17.33;;;4.13;;
4961;SDS011;2496;52.468;13.342;2023-09-30T06:13:09;18.53;;;4.30;;
4961;SDS011;2496;52.468;13.342;2023-09-30T06:15:37;23.67;;;4.67;;
4961;SDS011;2496;52.468;13.342;2023-09-30T06:18:05;19.03;;;4.53;;
4961;SDS011;2496;52.468;13.342;2023-09-30T06:20:33;15.43;;;3.60;;
4961;SDS011;2496;52.468;13.342;2023-09-30T06:23:00;12.60;;;3.60;;
4961;SDS011;2496;52.468;13.342;2023-09-30T06:25:27;20.37;;;5.60;;
4961;SDS011;2496;52.468;13.342;2023-09-30T06:27:55;14.17;;;3.80;;
4961;SDS011;2496;52.468;13.342;2023-09-30T06:30:24;13.60;;;3.80;;
4961;SDS011;2496;52.468;13.342;2023-09-30T06:32:54;12.43;;;4.03;;
4961;SDS011;2496;52.468;13.342;2023-09-30T06:35:22;15.97;;;4.17;;
4961;SDS011;2496;52.468;13.342;2023-09-30T06:37:49;13.30;;;4.80;;
4961;SDS011;2496;52.468;13.342;2023-09-30T06:40:16;17.60;;;4.37;;
4961;SDS011;2496;52.468;13.342;2023-09-30T06:42:44;19.67;;;3.77;;
4961;SDS011;2496;52.468;13.342;2023-09-30T06:45:11;14.30;;;4.20;;
4961;SDS011;2496;52.468;13.342;2023-09-30T06:47:40;15.67;;;4.87;;
4961;SDS011;2496;52.468;13.342;2023-09-30T06:50:08;14.83;;;4.27;;
4961;SDS011;2496;52.468;13.342;2023-09-30T06:52:38;18.93;;;4.73;;
4961;SDS011;2496;52.468;13.342;2023-09-30T06:55:07;10.20;;;3.73;;
4961;SDS011;2496;52.468;13.342;2023-09-30T06:57:36;14.50;;;5.10;;
4961;SDS011;2496;52.468;13.342;2023-09-30T07:00:06;8.07;;;3.33;;
4961;SDS011;2496;52.468;13.342;2023-09-30T07:02:34;16.67;;;4.20;;
4961;SDS011;2496;52.468;13.342;2023-09-30T07:05:04;21.10;;;3.87;;
4961;SDS011;2496;52.468;13.342;2023-09-30T07:07:32;20.50;;;5.50;;
4961;SDS011;2496;52.468;13.342;2023-09-30T07:09:59;17.37;;;4.77;;
4961;SDS011;2496;52.468;13.342;2023-09-30T07:12:26;19.33;;;4.20;;
4961;SDS011;2496;52.468;13.342;2023-09-30T07:14:53;13.63;;;4.33;;
4961;SDS011;2496;52.468;13.342;2023-09-30T07:17:20;20.07;;;4.60;;
4961;SDS011;2496;52.468;13.342;2023-09-30T07:19:47;13.77;;;4.53;;
4961;SDS011;2496;52.468;13.342;2023-09-30T07:22:16;9.57;;;4.20;;
4961;SDS011;2496;52.468;13.342;2023-09-30T07:24:43;19.23;;;4.80;;
4961;SDS011;2496;52.468;13.342;2023-09-30T07:27:11;9.97;;;4.30;;
4961;SDS011;2496;52.468;13.342;2023-09-30T07:29:38;13.27;;;3.83;;
4961;SDS011;2496;52.468;13.342;2023-09-30T07:32:06;15.03;;;4.03;;
4961;SDS011;2496;52.468;13.342;2023-09-30T07:34:33;10.03;;;4.23;;
4961;SDS011;2496;52.468;13.342;2023-09-30T07:37:00;14.97;;;4.33;;
4961;SDS011;2496;52.468;13.342;2023-09-30T07:39:30;18.07;;;5.13;;
4961;SDS011;2496;52.468;13.342;2023-09-30T07:41:57;15.07;;;5.00;;
4961;SDS011;2496;52.468;13.342;2023-09-30T07:44:24;14.20;;;4.03;;
4961;SDS011;2496;52.468;13.342;2023-09-30T07:46:51;15.20;;;5.07;;
4961;SDS011;2496;52.468;13.342;2023-09-30T07:49:18;14.03;;;5.03;;
4961;SDS011;2496;52.468;13.342;2023-09-30T07:51:45;11.93;;;4.40;;
4961;SDS011;2496;52.468;13.342;2023-09-30T07:54:12;19.03;;;4.63;;
4961;SDS011;2496;52.468;13.342;2023-09-30T07:56:41;21.40;;;5.53;;
4961;SDS011;2496;52.468;13.342;2023-09-30T07:59:08;13.70;;;4.63;;
4961;SDS011;2496;52.468;13.342;2023-09-30T08:01:35;15.70;;;4.60;;
4961;SDS011;2496;52.468;13.342;2023-09-30T08:04:02;16.07;;;5.13;;
4961;SDS011;2496;52.468;13.342;2023-09-30T08:06:29;15.60;;;4.53;;
4961;SDS011;2496;52.468;13.342;2023-09-30T08:08:58;23.70;;;4.77;;
4961;SDS011;2496;52.468;13.342;2023-09-30T08:11:25;12.40;;;3.83;;
4961;SDS011;2496;52.468;13.342;2023-09-30T08:13:57;14.90;;;3.60;;
4961;SDS011;2496;52.468;13.342;2023-09-30T08:16:29;17.57;;;3.60;;
4961;SDS011;2496;52.468;13.342;2023-09-30T08:18:56;13.43;;;3.50;;
4961;SDS011;2496;52.468;13.342;2023-09-30T08:21:22;11.63;;;4.00;;
4961;SDS011;2496;52.468;13.342;2023-09-30T08:23:49;16.70;;;4.53;;
4961;SDS011;2496;52.468;13.342;2023-09-30T08:26:16;14.50;;;4.17;;
4961;SDS011;2496;52.468;13.342;2023-09-30T08:28:43;18.30;;;3.87;;
4961;SDS011;2496;52.468;13.342;2023-09-30T08:31:12;13.37;;;4.30;;
4961;SDS011;2496;52.468;13.342;2023-09-30T08:33:39;13.20;;;5.20;;
4961;SDS011;2496;52.468;13.342;2023-09-30T08:36:08;14.07;;;4.17;;
4961;SDS011;2496;52.468;13.342;2023-09-30T08:38:36;14.00;;;4.60;;
4961;SDS011;2496;52.468;13.342;2023-09-30T08:41:03;23.77;;;4.80;;
4961;SDS011;2496;52.468;13.342;2023-09-30T08:43:33;10.90;;;3.80;;
4961;SDS011;2496;52.468;13.342;2023-09-30T08:46:04;21.53;;;5.10;;
4961;SDS011;2496;52.468;13.342;2023-09-30T08:48:33;11.40;;;3.37;;
4961;SDS011;2496;52.468;13.342;2023-09-30T08:51:01;19.43;;;4.33;;
4961;SDS011;2496;52.468;13.342;2023-09-30T08:53:28;14.50;;;3.90;;
4961;SDS011;2496;52.468;13.342;2023-09-30T08:55:56;21.17;;;5.33;;
4961;SDS011;2496;52.468;13.342;2023-09-30T08:58:26;17.23;;;4.53;;
4961;SDS011;2496;52.468;13.342;2023-09-30T09:00:54;12.93;;;3.83;;
4961;SDS011;2496;52.468;13.342;2023-09-30T09:03:22;10.20;;;3.63;;
4961;SDS011;2496;52.468;13.342;2023-09-30T09:05:54;12.93;;;4.20;;
4961;SDS011;2496;52.468;13.342;2023-09-30T09:08:22;8.83;;;3.60;;
4961;SDS011;2496;52.468;13.342;2023-09-30T09:10:54;14.53;;;4.27;;
4961;SDS011;2496;52.468;13.342;2023-09-30T09:13:22;12.03;;;4.60;;
4961;SDS011;2496;52.468;13.342;2023-09-30T09:15:50;12.83;;;4.30;;
4961;SDS011;2496;52.468;13.342;2023-09-30T09:18:31;8.13;;;3.10;;
4961;SDS011;2496;52.468;13.342;2023-09-30T09:21:10;14.63;;;3.80;;
4961;SDS011;2496;52.468;13.342;2023-09-30T09:23:38;9.00;;;3.43;;
4961;SDS011;2496;52.468;13.342;2023-09-30T09:26:06;15.80;;;3.90;;
4961;SDS011;2496;52.468;13.342;2023-09-30T09:28:33;14.47;;;4.17;;
4961;SDS011;2496;52.468;13.342;2023-09-30T09:31:01;14.27;;;4.40;;
4961;SDS011;2496;52.468;13.342;2023-09-30T09:33:34;9.53;;;3.60;;
4961;SDS011;2496;52.468;13.342;2023-09-30T09:36:02;18.27;;;3.70;;
4961;SDS011;2496;52.468;13.342;2023-09-30T09:38:44;14.50;;;3.60;;
4961;SDS011;2496;52.468;13.342;2023-09-30T09:41:13;20.17;;;4.20;;
4961;SDS011;2496;52.468;13.342;2023-09-30T09:43:40;20.30;;;3.50;;
4961;SDS011;2496;52.468;13.342;2023-09-30T09:46:09;10.17;;;3.63;;
4961;SDS011;2496;52.468;13.342;2023-09-30T09:48:36;8.53;;;2.90;;
4961;SDS011;2496;52.468;13.342;2023-09-30T09:51:04;16.40;;;3.27;;
4961;SDS011;2496;52.468;13.342;2023-09-30T09:53:34;15.57;;;3.77;;
4961;SDS011;2496;52.468;13.342;2023-09-30T09:56:04;11.80;;;2.97;;
4961;SDS011;2496;52.468;13.342;2023-09-30T09:58:35;12.30;;;3.67;;
4961;SDS011;2496;52.468;13.342;2023-09-30T10:01:04;13.77;;;3.60;;
4961;SDS011;2496;52.468;13.342;2023-09-30T10:03:32;12.30;;;3.40;;
4961;SDS011;2496;52.468;13.342;2023-09-30T10:05:59;12.63;;;3.93;;
4961;SDS011;2496;52.468;13.342;2023-09-30T10:08:31;18.70;;;3.57;;
4961;SDS011;2496;52.468;13.342;2023-09-30T10:10:59;12.50;;;3.83;;
4961;SDS011;2496;52.468;13.342;2023-09-30T10:19:17;11.33;;;3.40;;
4961;SDS011;2496;52.468;13.342;2023-09-30T10:24:51;16.47;;;4.37;;
4961;SDS011;2496;52.468;13.342;2023-09-30T10:27:29;13.00;;;4.07;;
4961;SDS011;2496;52.468;13.342;2023-09-30T10:30:02;10.07;;;3.87;;
4961;SDS011;2496;52.468;13.342;2023-09-30T10:35:43;11.03;;;4.07;;
4961;SDS011;2496;52.468;13.342;2023-09-30T10:41:07;8.33;;;2.70;;
4961;SDS011;2496;52.468;13.342;2023-09-30T10:43:37;10.47;;;3.20;;
4961;SDS011;2496;52.468;13.342;2023-09-30T10:51:56;12.77;;;3.60;;
4961;SDS011;2496;52.468;13.342;2023-09-30T10:54:25;8.33;;;3.10;;
4961;SDS011;2496;52.468;13.342;2023-09-30T10:56:52;10.90;;;2.40;;
4961;SDS011;2496;52.468;13.342;2023-09-30T10:59:21;11.70;;;3.10;;
4961;SDS011;2496;52.468;13.342;2023-09-30T11:01:50;18.17;;;3.37;;
4961;SDS011;2496;52.468;13.342;2023-09-30T11:04:18;10.60;;;5.17;;
4961;SDS011;2496;52.468;13.342;2023-09-30T11:06:46;11.77;;;3.03;;
4961;SDS011;2496;52.468;13.342;2023-09-30T11:09:17;22.50;;;3.20;;
4961;SDS011;2496;52.468;13.342;2023-09-30T11:11:47;9.93;;;3.20;;
4961;SDS011;2496;52.468;13.342;2023-09-30T11:14:19;8.00;;;3.53;;
4961;SDS011;2496;52.468;13.342;2023-09-30T11:16:47;12.83;;;3.63;;
4961;SDS011;2496;52.468;13.342;2023-09-30T11:19:17;11.67;;;2.80;;
4961;SDS011;2496;52.468;13.342;2023-09-30T11:21:46;9.40;;;3.03;;
4961;SDS011;2496;52.468;13.342;2023-09-30T11:24:15;10.80;;;3.57;;
4961;SDS011;2496;52.468;13.342;2023-09-30T11:26:42;22.47;;;4.20;;
4961;SDS011;2496;52.468;13.342;2023-09-30T11:29:11;19.87;;;4.47;;
4961;SDS011;2496;52.468;13.342;2023-09-30T11:31:41;9.87;;;3.43;;
4961;SDS011;2496;52.468;13.342;2023-09-30T11:34:10;26.50;;;3.53;;
4961;SDS011;2496;52.468;13.342;2023-09-30T11:36:39;8.40;;;2.23;;
4961;SDS011;2496;52.468;13.342;2023-09-30T11:39:20;12.60;;;3.30;;
4961;SDS011;2496;52.468;13.342;2023-09-30T11:41:49;8.60;;;2.93;;
4961;SDS011;2496;52.468;13.342;2023-09-30T11:44:17;6.90;;;2.40;;
4961;SDS011;2496;52.468;13.342;2023-09-30T11:46:47;8.00;;;2.70;;
4961;SDS011;2496;52.468;13.342;2023-09-30T11:49:25;8.17;;;3.00;;
4961;SDS011;2496;52.468;13.342;2023-09-30T11:51:55;14.77;;;3.20;;
4961;SDS011;2496;52.468;13.342;2023-09-30T11:54:28;11.07;;;3.03;;
4961;SDS011;2496;52.468;13.342;2023-09-30T11:56:56;16.10;;;2.97;;
4961;SDS011;2496;52.468;13.342;2023-09-30T11:59:23;9.07;;;3.37;;
4961;SDS011;2496;52.468;13.342;2023-09-30T12:01:50;7.87;;;3.20;;
4961;SDS011;2496;52.468;13.342;2023-09-30T12:04:18;12.37;;;3.47;;
4961;SDS011;2496;52.468;13.342;2023-09-30T12:06:45;12.00;;;3.13;;
4961;SDS011;2496;52.468;13.342;2023-09-30T12:09:14;9.30;;;3.57;;
4961;SDS011;2496;52.468;13.342;2023-09-30T12:11:42;9.97;;;3.60;;
4961;SDS011;2496;52.468;13.342;2023-09-30T12:14:10;8.33;;;2.33;;
4961;SDS011;2496;52.468;13.342;2023-09-30T12:16:38;6.83;;;1.73;;
4961;SDS011;2496;52.468;13.342;2023-09-30T12:19:06;10.97;;;2.17;;
4961;SDS011;2496;52.468;13.342;2023-09-30T12:21:34;10.50;;;3.17;;
4961;SDS011;2496;52.468;13.342;2023-09-30T12:24:02;5.90;;;2.40;;
4961;SDS011;2496;52.468;13.342;2023-09-30T12:26:31;8.60;;;2.80;;
4961;SDS011;2496;52.468;13.342;2023-09-30T12:28:58;10.97;;;2.57;;
4961;SDS011;2496;52.468;13.342;2023-09-30T12:31:25;5.37;;;2.40;;
4961;SDS011;2496;52.468;13.342;2023-09-30T12:33:52;9.33;;;2.80;;
4961;SDS011;2496;52.468;13.342;2023-09-30T12:36:20;8.30;;;2.80;;
4961;SDS011;2496;52.468;13.342;2023-09-30T12:38:47;13.00;;;2.60;;
4961;SDS011;2496;52.468;13.342;2023-09-30T12:41:14;5.23;;;2.13;;
4961;SDS011;2496;52.468;13.342;2023-09-30T12:43:45;11.57;;;2.80;;
4961;SDS011;2496;52.468;13.342;2023-09-30T12:46:12;9.30;;;3.73;;
4961;SDS011;2496;52.468;13.342;2023-09-30T12:48:39;7.20;;;2.53;;
4961;SDS011;2496;52.468;13.342;2023-09-30T12:51:07;9.57;;;3.17;;
4961;SDS011;2496;52.468;13.342;2023-09-30T12:53:34;8.50;;;3.80;;
4961;SDS011;2496;52.468;13.342;2023-09-30T12:56:01;16.53;;;2.93;;
4961;SDS011;2496;52.468;13.342;2023-09-30T12:58:29;11.37;;;2.73;;
4961;SDS011;2496;52.468;13.342;2023-09-30T13:00:57;9.27;;;2.40;;
4961;SDS011;2496;52.468;13.342;2023-09-30T13:03:24;6.83;;;2.50;;
4961;SDS011;2496;52.468;13.342;2023-09-30T13:05:51;8.50;;;2.77;;
4961;SDS011;2496;52.468;13.342;2023-09-30T13:08:19;9.67;;;3.03;;
4961;SDS011;2496;52.468;13.342;2023-09-30T13:10:46;17.67;;;4.00;;
4961;SDS011;2496;52.468;13.342;2023-09-30T13:13:15;7.40;;;2.53;;
4961;SDS011;2496;52.468;13.342;2023-09-30T13:15:43;8.63;;;2.50;;
4961;SDS011;2496;52.468;13.342;2023-09-30T13:18:11;5.77;;;3.20;;
4961;SDS011;2496;52.468;13.342;2023-09-30T13:20:39;10.53;;;3.50;;
4961;SDS011;2496;52.468;13.342;2023-09-30T13:23:06;7.20;;;3.10;;
4961;SDS011;2496;52.468;13.342;2023-09-30T13:25:33;12.23;;;4.73;;
4961;SDS011;2496;52.468;13.342;2023-09-30T13:28:00;6.70;;;2.40;;
4961;SDS011;2496;52.468;13.342;2023-09-30T13:30:27;7.60;;;2.30;;
4961;SDS011;2496;52.468;13.342;2023-09-30T13:32:54;9.30;;;2.93;;
4961;SDS011;2496;52.468;13.342;2023-09-30T13:35:22;8.27;;;2.90;;
4961;SDS011;2496;52.468;13.342;2023-09-30T13:37:50;5.57;;;2.23;;
4961;SDS011;2496;52.468;13.342;2023-09-30T13:40:17;10.77;;;3.00;;
4961;SDS011;2496;52.468;13.342;2023-09-30T13:42:44;8.77;;;3.27;;
4961;SDS011;2496;52.468;13.342;2023-09-30T13:45:12;4.67;;;2.17;;
4961;SDS011;2496;52.468;13.342;2023-09-30T13:47:39;6.67;;;2.57;;
4961;SDS011;2496;52.468;13.342;2023-09-30T13:50:06;8.73;;;2.53;;
4961;SDS011;2496;52.468;13.342;2023-09-30T13:52:35;9.27;;;3.13;;
4961;SDS011;2496;52.468;13.342;2023-09-30T13:55:03;13.70;;;2.70;;
4961;SDS011;2496;52.468;13.342;2023-09-30T13:57:30;9.13;;;2.30;;
4961;SDS011;2496;52.468;13.342;2023-09-30T13:59:57;8.50;;;2.90;;
4961;SDS011;2496;52.468;13.342;2023-09-30T14:02:24;4.23;;;2.10;;
4961;SDS011;2496;52.468;13.342;2023-09-30T14:04:51;5.97;;;2.50;;
4961;SDS011;2496;52.468;13.342;2023-09-30T14:07:19;4.80;;;1.77;;
4961;SDS011;2496;52.468;13.342;2023-09-30T14:09:48;10.93;;;2.70;;
4961;SDS011;2496;52.468;13.342;2023-09-30T14:12:17;8.10;;;2.57;;
4961;SDS011;2496;52.468;13.342;2023-09-30T14:14:44;4.67;;;2.30;;
4961;SDS011;2496;52.468;13.342;2023-09-30T14:17:11;8.40;;;3.67;;
4961;SDS011;2496;52.468;13.342;2023-09-30T14:19:40;14.13;;;3.33;;
4961;SDS011;2496;52.468;13.342;2023-09-30T14:22:07;9.00;;;3.17;;
4961;SDS011;2496;52.468;13.342;2023-09-30T14:24:34;10.10;;;3.20;;
4961;SDS011;2496;52.468;13.342;2023-09-30T14:27:03;6.67;;;2.40;;
4961;SDS011;2496;52.468;13.342;2023-09-30T14:29:31;12.27;;;2.63;;
4961;SDS011;2496;52.468;13.342;2023-09-30T14:31:58;7.40;;;2.10;;
4961;SDS011;2496;52.468;13.342;2023-09-30T14:34:25;6.67;;;2.90;;
4961;SDS011;2496;52.468;13.342;2023-09-30T14:36:52;7.83;;;1.80;;
4961;SDS011;2496;52.468;13.342;2023-09-30T14:39:19;6.93;;;2.40;;
4961;SDS011;2496;52.468;13.342;2023-09-30T14:41:46;6.33;;;2.00;;
4961;SDS011;2496;52.468;13.342;2023-09-30T14:44:15;8.70;;;2.40;;
4961;SDS011;2496;52.468;13.342;2023-09-30T14:46:42;6.17;;;2.70;;
4961;SDS011;2496;52.468;13.342;2023-09-30T14:49:09;6.63;;;2.73;;
4961;SDS011;2496;52.468;13.342;2023-09-30T14:51:36;7.43;;;3.70;;
4961;SDS011;2496;52.468;13.342;2023-09-30T14:54:04;8.97;;;3.10;;
4961;SDS011;2496;52.468;13.342;2023-09-30T14:56:31;10.80;;;4.80;;
4961;SDS011;2496;52.468;13.342;2023-09-30T14:58:58;7.03;;;3.07;;
4961;SDS011;2496;52.468;13.342;2023-09-30T15:01:27;7.27;;;2.43;;
4961;SDS011;2496;52.468;13.342;2023-09-30T15:03:54;13.13;;;3.87;;
4961;SDS011;2496;52.468;13.342;2023-09-30T15:06:21;8.90;;;2.57;;
4961;SDS011;2496;52.468;13.342;2023-09-30T15:08:49;7.93;;;3.60;;
4961;SDS011;2496;52.468;13.342;2023-09-30T15:11:16;15.17;;;3.67;;
4961;SDS011;2496;52.468;13.342;2023-09-30T15:13:44;10.67;;;4.97;;
4961;SDS011;2496;52.468;13.342;2023-09-30T15:16:15;8.27;;;3.00;;
4961;SDS011;2496;52.468;13.342;2023-09-30T15:18:44;7.10;;;2.37;;
4961;SDS011;2496;52.468;13.342;2023-09-30T15:21:12;13.03;;;3.20;;